Time;durP1;ratioP1;P1;durP2;ratioP2;P2;SDS_P1;SDS_P2;PMS_P1;PMS_P2;Temp;Humidity;BMP_temperature;BMP_pressure;BME280_temperature;BME280_humidity;BME280_pressure;Samples;Min_cycle;Max_cycle;Signal;HPM_P1;HPM_P2
2024/02/12 00:01:40;;;;;;;9.70;2.65;;;6.50;99.90;;;-144.05;83.68;57046.38;5022673;28;20030;-81
2024/02/12 00:04:09;;;;;;;4.47;2.35;;;;;;;-144.05;84.04;57050.63;5023281;28;20022;-80
2024/02/12 00:06:35;;;;;;;4.95;2.53;;;8.60;99.90;;;-144.05;84.49;56997.50;5022796;28;20029;-80
2024/02/12 00:09:03;;;;;;;4.65;2.10;;;;;;;-144.05;84.08;57029.38;5023262;28;20030;-80
2024/02/12 00:11:31;;;;;;;4.80;3.15;;;;;;;-144.05;84.91;57050.63;5012179;28;20042;-80
2024/02/12 00:13:57;;;;;;;6.95;2.72;;;6.60;99.90;;;-144.05;84.17;57025.13;5013152;28;20025;-80
2024/02/12 00:16:26;;;;;;;6.38;2.78;;;7.60;99.90;;;-144.05;85.07;57031.50;5012385;28;20092;-80
2024/02/12 00:18:52;;;;;;;8.35;3.13;;;;;;;-144.05;85.42;57040.00;5027350;28;20064;-80
2024/02/12 00:21:18;;;;;;;5.05;2.65;;;;;;;-144.05;85.22;57023.00;5011815;28;20045;-80
2024/02/12 00:23:46;;;;;;;8.05;3.17;;;6.80;99.90;;;-144.05;84.78;57008.13;5012273;28;20483;-80
2024/02/12 00:26:13;;;;;;;7.93;2.90;;;;;;;-144.05;85.02;57027.25;5014396;28;20029;-78
2024/02/12 00:28:39;;;;;;;5.53;2.90;;;6.80;99.90;;;-144.05;85.14;57018.75;5006987;28;20117;-80
2024/02/12 00:31:05;;;;;;;7.60;2.60;;;;;;;-144.05;84.41;57033.63;5011844;28;20033;-78
2024/02/12 00:33:33;;;;;;;8.02;3.85;;;;;;;-144.05;84.71;56997.50;5012263;28;20026;-80
2024/02/12 00:36:00;;;;;;;7.82;3.80;;;;;;;-144.05;85.14;57020.88;5011977;28;20044;-80
2024/02/12 00:38:27;;;;;;;5.03;3.28;;;6.70;99.90;;;-144.05;84.71;57046.38;5011101;28;20056;-78
2024/02/12 00:40:54;;;;;;;7.57;3.80;;;;;;;-144.05;84.86;57029.38;5019792;28;20033;-81
2024/02/12 00:43:20;;;;;;;9.00;4.10;;;;;;;-144.05;85.27;57040.00;5012834;28;20030;-79
2024/02/12 00:45:46;;;;;;;9.65;4.43;;;6.80;99.90;;;-144.05;85.22;57012.38;5010881;28;20411;-80
2024/02/12 00:48:12;;;;;;;9.05;4.82;;;7.10;99.90;;;-144.05;85.08;57025.13;5027761;28;20026;-79
2024/02/12 00:50:38;;;;;;;8.60;4.63;;;;;;;-144.05;85.07;57048.50;5012382;28;20030;-80
2024/02/12 00:53:04;;;;;;;6.97;4.38;;;6.40;99.90;;;-144.05;85.02;57014.50;5012746;28;20065;-81
2024/02/12 00:55:30;;;;;;;8.80;4.90;;;6.50;99.90;;;-144.05;84.92;56986.91;5014578;28;20078;-81
2024/02/12 00:57:57;;;;;;;7.22;4.95;;;;;;;-144.05;85.19;57027.25;5016656;28;20104;-80
2024/02/12 01:00:25;;;;;;;10.65;6.18;;;7.80;99.90;;;-144.05;85.27;57035.75;5016052;28;20105;-80
2024/02/12 01:02:51;;;;;;;12.52;7.40;;;;;;;-144.05;86.50;57048.50;5015803;28;20046;-78
2024/02/12 01:05:17;;;;;;;17.38;7.90;;;;;;;-144.05;86.12;57031.50;5014746;28;20037;-80
2024/02/12 01:07:44;;;;;;;13.07;7.88;;;7.70;99.90;;;-144.05;85.83;57023.00;5014299;28;20041;-79
2024/02/12 01:10:10;;;;;;;16.67;8.85;;;6.90;99.90;;;-144.05;85.62;57044.25;5015004;28;20037;-80
2024/02/12 01:12:36;;;;;;;16.27;8.82;;;6.50;99.90;;;-144.05;86.01;57029.38;5016686;28;20046;-80
2024/02/12 01:15:05;;;;;;;16.58;9.40;;;7.80;99.90;;;-144.05;85.54;57010.25;5017606;28;20026;-80
2024/02/12 01:17:31;;;;;;;15.70;9.70;;;6.80;99.90;;;-144.05;85.25;57033.63;5015781;28;20026;-80
2024/02/12 01:19:57;;;;;;;17.88;9.98;;;;;;;-144.05;85.75;57031.50;5016069;28;20029;-81
2024/02/12 01:22:24;;;;;;;19.80;10.23;;;;;;;-144.05;85.25;57027.25;5015512;28;20056;-78
2024/02/12 01:24:54;;;;;;;17.63;10.00;;;;;;;-144.05;85.30;57027.25;5016118;28;20109;-78
2024/02/12 01:27:20;;;;;;;20.02;10.50;;;;;;;-144.05;85.80;57027.25;5014016;28;20018;-80
2024/02/12 01:29:49;;;;;;;25.38;11.48;;;;;;;-144.05;86.14;57031.50;5015185;28;20030;-79
2024/02/12 01:32:16;;;;;;;20.70;11.02;;;;;;;-144.05;85.82;57027.25;5014335;28;20029;-81
2024/02/12 01:34:44;;;;;;;19.88;11.05;;;7.70;99.90;;;-144.05;86.08;57029.38;5020062;28;20053;-80
2024/02/12 01:37:11;;;;;;;16.33;10.38;;;;;;;-144.05;85.82;56991.13;5021013;28;20034;-80
2024/02/12 01:39:37;;;;;;;20.38;11.55;;;;;;;-144.05;85.84;57020.88;5019366;28;20018;-81
2024/02/12 01:42:14;;;;;;;20.17;11.63;;;7.80;99.90;;;-144.05;86.15;57006.00;5020653;28;20137;-79
2024/02/12 01:45:11;;;;;;;24.05;11.80;;;7.80;99.90;;;-144.05;86.30;57018.75;5019297;28;20554;-81
2024/02/12 01:47:43;;;;;;;24.95;12.50;;;;;;;-144.05;86.53;57014.50;5019739;28;20120;-80
2024/02/12 01:50:13;;;;;;;23.00;12.73;;;7.80;99.90;;;-144.05;86.21;57046.38;5018704;28;20037;-80
2024/02/12 01:52:46;;;;;;;21.02;12.88;;;7.80;99.90;;;-144.05;86.39;57020.88;5012110;28;20045;-80
2024/02/12 01:55:15;;;;;;;24.63;13.45;;;;;;;-144.05;86.72;57035.75;5031043;28;20018;-80
2024/02/12 01:57:46;;;;;;;22.33;11.90;;;7.80;99.90;;;-144.05;86.58;57010.25;5015892;28;20076;-81
2024/02/12 02:00:17;;;;;;;25.25;14.05;;;7.70;99.90;;;-144.05;86.41;56997.50;5015256;28;20020;-81
2024/02/12 02:02:44;;;;;;;26.17;15.25;;;6.50;99.90;;;-144.05;86.91;57048.50;5010500;28;20549;-79
2024/02/12 02:05:15;;;;;;;29.00;15.25;;;7.20;99.90;;;-144.05;87.42;57008.13;5013223;28;20026;-79
2024/02/12 02:07:44;;;;;;;28.08;15.57;;;7.90;99.90;;;-144.05;86.94;56993.25;5008726;28;20095;-78
2024/02/12 02:10:14;;;;;;;25.08;14.63;;;;;;;-144.05;86.79;56997.50;5015032;28;20436;-79
2024/02/12 02:12:42;;;;;;;27.02;15.23;;;8.50;99.90;;;-144.05;87.28;57033.63;5008277;28;20402;-78
2024/02/12 02:15:12;;;;;;;26.02;15.07;;;6.90;99.90;;;-144.05;87.06;57027.25;5014860;28;20034;-80
2024/02/12 02:17:39;;;;;;;29.60;15.82;;;;;;;-144.05;87.30;57031.50;5014418;28;20041;-78
2024/02/12 02:20:10;;;;;;;26.63;14.90;;;7.30;99.90;;;-144.05;87.68;57027.25;5012711;28;20416;-81
2024/02/12 02:22:37;;;;;;;28.10;16.30;;;8.50;99.90;;;-144.05;87.73;57020.88;5014158;28;20340;-78
2024/02/12 02:25:05;;;;;;;27.90;15.32;;;6.20;99.90;;;-144.05;88.35;57025.13;5012689;28;20148;-80
2024/02/12 02:27:34;;;;;;;28.60;15.52;;;;;;;-144.05;88.38;57031.50;5014592;28;20061;-81
2024/02/12 02:30:07;;;;;;;29.67;17.10;;;;;;;-144.05;87.73;57003.88;5015809;28;20463;-78
2024/02/12 02:32:36;;;;;;;31.77;15.07;;;6.40;99.90;;;-144.05;87.67;57029.38;5013775;28;20471;-80
2024/02/12 02:35:07;;;;;;;29.45;16.08;;;6.70;99.90;;;-144.05;87.77;57016.63;5030695;28;20495;-79
2024/02/12 02:37:35;;;;;;;26.40;15.32;;;8.60;99.90;;;-144.05;88.29;57018.75;5014355;28;20034;-80
2024/02/12 02:40:03;;;;;;;29.00;15.88;;;8.20;99.90;;;-144.05;88.75;57001.75;5013408;28;20021;-78
2024/02/12 02:42:29;;;;;;;28.70;16.83;;;6.40;99.90;;;-144.05;88.78;57018.75;5012706;28;20178;-78
2024/02/12 02:44:55;;;;;;;29.85;16.35;;;6.70;99.90;;;-144.05;88.43;57010.25;5014062;28;20133;-80
2024/02/12 02:47:21;;;;;;;30.95;16.90;;;6.40;99.90;;;-144.05;88.79;57008.13;5012048;28;20022;-80
2024/02/12 02:49:47;;;;;;;29.33;16.38;;;6.30;99.90;;;-144.05;88.56;57023.00;5013805;28;20435;-80
2024/02/12 02:52:13;;;;;;;33.03;17.40;;;;;;;-144.05;88.81;57035.75;5012731;28;20029;-78
2024/02/12 02:54:45;;;;;;;29.45;17.08;;;6.50;99.90;;;-144.05;88.78;57023.00;5007643;28;20026;-81
2024/02/12 02:57:11;;;;;;;30.48;16.67;;;;;;;-144.05;88.91;57018.75;5014025;28;20034;-80
2024/02/12 02:59:38;;;;;;;33.22;17.83;;;;;;;-144.05;89.05;57029.38;5014308;28;20722;-80
2024/02/12 03:02:08;;;;;;;27.20;16.50;;;8.70;99.90;;;-144.05;88.84;57012.38;5014829;28;20064;-81
2024/02/12 03:04:35;;;;;;;33.72;17.73;;;;;;;-144.05;89.46;57035.75;5013100;28;20113;-81
2024/02/12 03:07:02;;;;;;;28.35;17.33;;;6.50;99.90;;;-144.05;89.04;57044.25;5013125;28;20030;-80
2024/02/12 03:09:28;;;;;;;33.30;18.42;;;7.30;99.90;;;-144.05;89.43;56984.78;5014327;28;20121;-81
2024/02/12 03:11:54;;;;;;;31.67;18.65;;;;;;;-144.05;89.03;57040.00;5014573;28;20129;-77
2024/02/12 03:14:21;;;;;;;37.30;20.10;;;6.50;99.90;;;-144.05;89.41;57031.50;5016413;28;20168;-80
2024/02/12 03:16:56;;;;;;;32.78;19.15;;;7.70;99.90;;;-144.05;89.40;57010.25;5013958;28;20036;-80
2024/02/12 03:19:22;;;;;;;41.83;20.98;;;8.60;99.90;;;-144.05;89.42;57044.25;5016765;28;20022;-80
2024/02/12 03:21:49;;;;;;;39.72;21.58;;;;;;;-144.05;89.72;57014.50;5015866;28;20029;-80
2024/02/12 03:24:19;;;;;;;40.17;22.00;;;8.60;99.90;;;-144.05;89.39;57006.00;5017270;28;20029;-81
2024/02/12 03:26:46;;;;;;;38.65;21.55;;;6.70;99.90;;;-144.05;89.33;56999.63;5016116;28;20487;-79
2024/02/12 03:29:12;;;;;;;40.40;21.90;;;6.40;99.90;;;-144.05;90.12;57054.88;5016528;28;20088;-81
2024/02/12 03:31:41;;;;;;;40.05;22.75;;;6.70;99.90;;;-144.05;89.48;57014.50;5017095;28;20030;-81
2024/02/12 03:34:08;;;;;;;43.55;23.35;;;;;;;-144.05;89.35;57008.13;5028183;28;20055;-81
2024/02/12 03:36:34;;;;;;;41.03;22.92;;;;;;;-144.05;89.53;57018.75;5013499;28;20026;-77
2024/02/12 03:39:01;;;;;;;47.40;25.08;;;;;;;-144.05;89.39;56986.91;5012174;28;20140;-80
2024/02/12 03:41:26;;;;;;;49.35;24.75;;;6.70;99.90;;;-144.05;89.38;57031.50;5013960;28;20022;-81
2024/02/12 03:43:53;;;;;;;47.83;24.42;;;;;;;-144.05;89.26;57018.75;5013985;28;20038;-81
2024/02/12 03:46:20;;;;;;;45.42;24.85;;;6.50;99.90;;;-144.05;88.92;57006.00;5014568;28;20049;-82
2024/02/12 03:59:53;;;;;;;41.85;22.45;;;;;;;-144.05;88.86;57027.25;5015739;28;20057;-81
2024/02/12 04:02:23;;;;;;;40.15;21.88;;;8.10;99.90;;;-144.05;88.88;56986.91;5023279;28;20030;-81
2024/02/12 04:04:50;;;;;;;46.55;24.33;;;8.20;99.90;;;-144.05;88.76;57014.50;5021277;28;20060;-80
2024/02/12 04:07:19;;;;;;;42.95;23.15;;;8.50;99.90;;;-144.05;88.89;57006.00;5026574;28;20037;-80
2024/02/12 04:09:45;;;;;;;54.00;23.52;;;7.30;99.90;;;-144.05;88.93;57010.25;5025846;28;20172;-81
2024/02/12 04:12:11;;;;;;;43.10;22.30;;;;;;;-144.05;88.56;57029.38;5025961;28;20030;-81
2024/02/12 04:14:42;;;;;;;45.03;22.90;;;;;;;-144.05;88.60;57029.38;5026933;28;20025;-80
2024/02/12 04:17:14;;;;;;;41.80;22.80;;;7.60;99.90;;;-144.05;88.53;57014.50;5017645;28;20041;-81
2024/02/12 04:19:42;;;;;;;49.38;23.30;;;6.80;99.90;;;-144.05;88.82;56993.25;5007134;28;20010;-81
2024/02/12 04:22:14;;;;;;;47.35;24.23;;;;;;;-144.05;89.02;57035.75;5011213;28;20034;-80
2024/02/12 04:24:41;;;;;;;46.83;26.00;;;7.30;99.90;;;-144.05;88.86;57020.88;5007687;28;20103;-81
2024/02/12 04:27:08;;;;;;;50.20;26.17;;;8.40;99.90;;;-144.05;89.83;57023.00;5011872;28;20153;-79
2024/02/12 04:29:37;;;;;;;53.33;26.30;;;7.60;99.90;;;-144.05;89.53;57025.13;5010506;28;20065;-81
2024/02/12 04:32:11;;;;;;;56.67;26.17;;;8.40;99.90;;;-144.05;89.26;57010.25;5011976;28;20022;-80
2024/02/12 04:34:39;;;;;;;54.17;25.90;;;6.70;99.90;;;-144.05;89.67;57029.38;5014888;28;20014;-81
2024/02/12 04:37:09;;;;;;;52.38;25.55;;;6.60;99.90;;;-144.05;89.35;57029.38;5012668;28;20113;-81
2024/02/12 04:39:36;;;;;;;51.83;26.50;;;7.50;99.90;;;-144.05;89.14;57029.38;5012870;28;20044;-79
2024/02/12 04:42:03;;;;;;;58.20;27.83;;;7.60;99.90;;;-144.05;89.31;57010.25;5012736;28;20089;-80
2024/02/12 04:44:30;;;;;;;61.60;29.10;;;7.30;99.90;;;-144.05;89.42;56997.50;5014053;28;20072;-80
2024/02/12 04:46:58;;;;;;;58.80;28.42;;;7.60;99.90;;;-144.05;89.48;57012.38;5011872;28;20503;-81
2024/02/12 04:49:25;;;;;;;51.47;26.38;;;;;;;-144.05;89.07;57001.75;5028472;28;20029;-82
2024/02/12 04:51:52;;;;;;;55.63;25.13;;;;;;;-144.05;89.05;57031.50;5013303;28;20033;-79
2024/02/12 04:54:19;;;;;;;56.85;28.33;;;;;;;-144.05;89.06;57027.25;5011069;28;20053;-80
2024/02/12 04:56:45;;;;;;;58.53;27.45;;;7.80;99.90;;;-144.05;88.83;57025.13;5012574;28;20026;-81
2024/02/12 04:59:15;;;;;;;51.17;27.45;;;7.70;99.90;;;-144.05;88.88;57031.50;5013251;28;20413;-81
2024/02/12 05:01:42;;;;;;;57.03;28.58;;;8.20;99.90;;;-144.05;88.56;57018.75;5021622;28;20600;-80
2024/02/12 05:04:08;;;;;;;55.20;27.88;;;6.50;99.90;;;-144.05;88.66;57029.38;5012290;28;20037;-81
2024/02/12 05:06:36;;;;;;;51.42;26.90;;;7.60;99.90;;;-144.05;88.36;57014.50;5010238;28;20372;-81
2024/02/12 05:09:04;;;;;;;56.08;27.40;;;7.60;99.90;;;-144.05;87.60;57033.63;5012377;28;20030;-81
2024/02/12 05:11:33;;;;;;;55.10;25.63;;;7.60;99.90;;;-144.05;87.12;57012.38;5011995;28;20127;-80
2024/02/12 05:14:00;;;;;;;55.50;26.88;;;;;;;-144.05;87.55;57008.13;5027197;28;20026;-80
2024/02/12 05:16:32;;;;;;;55.55;26.25;;;7.70;99.90;;;-144.05;87.76;57012.38;5011837;28;20021;-81
2024/02/12 05:24:29;;;;;;;42.55;23.48;;;6.90;99.90;;;-144.05;86.77;57040.00;5012895;28;20036;-80
2024/02/12 05:26:57;;;;;;;46.22;23.75;;;;;;;-144.05;86.56;57016.63;5011720;28;20487;-80
2024/02/12 05:29:25;;;;;;;44.75;22.75;;;7.50;99.90;;;-144.05;86.38;56986.91;5012314;28;20032;-81
2024/02/12 05:31:52;;;;;;;43.30;23.25;;;7.10;99.90;;;-144.05;86.50;57033.63;5016652;28;20034;-81
2024/02/12 05:34:20;;;;;;;49.72;23.05;;;;;;;-144.05;85.86;57025.13;5016180;28;20026;-81
2024/02/12 05:36:51;;;;;;;40.92;21.02;;;7.30;99.90;;;-144.05;85.96;57010.25;5019071;28;20029;-80
2024/02/12 05:39:19;;;;;;;42.20;21.80;;;6.50;99.90;;;-144.05;86.20;57035.75;5017989;28;20029;-82
2024/02/12 05:41:48;;;;;;;42.60;22.05;;;;;;;-144.05;85.99;57025.13;5020551;28;20025;-80
2024/02/12 05:44:16;;;;;;;39.97;20.52;;;;;;;-144.05;85.99;57040.00;5034767;28;20045;-78
2024/02/12 05:46:42;;;;;;;49.35;24.17;;;;;;;-144.05;86.39;57027.25;5034001;28;20057;-80
2024/02/12 05:49:14;;;;;;;41.47;21.35;;;6.00;99.90;;;-144.05;85.87;57048.50;5017881;28;20038;-76
2024/02/12 05:51:39;;;;;;;42.78;21.00;;;6.90;99.90;;;-144.05;85.77;57035.75;5010739;28;20438;-80
2024/02/12 05:54:06;;;;;;;46.85;22.48;;;;;;;-144.05;85.46;57020.88;5017224;28;20030;-81
2024/02/12 05:56:33;;;;;;;48.90;21.98;;;6.00;99.90;;;-144.05;85.79;57031.50;5018346;28;20025;-79
2024/02/12 05:58:59;;;;;;;38.78;20.42;;;;;;;-144.05;85.47;57040.00;5017701;28;20021;-80
2024/02/12 06:01:25;;;;;;;37.30;19.85;;;;;;;-144.05;85.44;57031.50;5015725;28;20034;-81
2024/02/12 06:03:52;;;;;;;40.05;20.98;;;;;;;-144.05;84.85;57044.25;5017587;28;20082;-80
2024/02/12 06:06:18;;;;;;;38.72;20.73;;;;;;;-144.05;84.77;57014.50;5015825;28;20034;-79
2024/02/12 06:08:44;;;;;;;48.50;22.40;;;3.70;99.90;;;-144.05;84.89;57012.38;5016768;28;20037;-81
2024/02/12 06:11:10;;;;;;;37.30;21.10;;;;;;;-144.05;84.96;57040.00;5017483;28;20084;-81
2024/02/12 06:13:36;;;;;;;47.50;22.63;;;3.80;99.90;;;-144.05;85.71;57014.50;5018528;28;20060;-79
2024/02/12 06:16:03;;;;;;;40.25;20.80;;;;;;;-144.05;85.34;57052.75;5032082;28;20034;-78
2024/02/12 06:18:30;;;;;;;43.67;21.48;;;;;;;-144.05;85.31;57042.13;5015241;28;20118;-80
2024/02/12 06:20:56;;;;;;;44.80;21.02;;;5.70;99.90;;;-144.05;85.50;57012.38;5016031;28;20573;-80
2024/02/12 06:23:22;;;;;;;41.20;20.80;;;4.00;99.90;;;-144.05;85.41;57044.25;5015485;28;20026;-79
2024/02/12 06:25:48;;;;;;;43.45;22.08;;;6.30;99.90;;;-144.05;85.98;57018.75;5017036;28;20519;-78
2024/02/12 06:28:14;;;;;;;45.20;22.38;;;;;;;-144.05;85.14;57067.59;5018261;28;20065;-76
2024/02/12 06:30:41;;;;;;;40.80;21.27;;;6.50;99.90;;;-144.05;84.99;57018.75;5014805;28;20026;-80
2024/02/12 06:33:07;;;;;;;41.25;21.08;;;;;;;-144.05;85.09;57025.13;5014500;28;20428;-79
2024/02/12 06:35:34;;;;;;;43.92;21.58;;;6.40;99.90;;;-144.05;85.25;57027.25;5014271;28;20036;-79
2024/02/12 06:38:03;;;;;;;44.90;20.90;;;;;;;-144.05;85.43;57042.13;5012296;28;20026;-78
2024/02/12 06:40:30;;;;;;;42.78;21.02;;;3.50;99.90;;;-144.05;85.27;57042.13;5012490;28;20022;-77
2024/02/12 06:42:59;;;;;;;41.40;20.33;;;7.00;99.90;;;-144.05;85.41;57063.34;5013827;28;20026;-79
2024/02/12 06:45:25;;;;;;;42.88;21.27;;;6.30;99.90;;;-144.05;85.29;57033.63;5013032;28;20383;-80
2024/02/12 06:47:51;;;;;;;45.20;21.67;;;4.80;99.90;;;-144.05;85.51;57020.88;5016271;28;20090;-78
2024/02/12 06:50:17;;;;;;;41.95;21.33;;;7.40;99.90;;;-144.05;85.81;57020.88;5014784;28;20442;-78
2024/02/12 06:52:42;;;;;;;42.92;21.13;;;3.70;99.90;;;-144.05;86.52;57029.38;5015250;28;20061;-79
2024/02/12 06:55:15;;;;;;;42.03;19.90;;;7.40;99.90;;;-144.05;86.32;57029.38;5016628;28;20084;-77
2024/02/12 06:57:45;;;;;;;47.08;23.35;;;6.50;99.90;;;-144.05;86.48;57054.88;5010043;28;20050;-78
2024/02/12 07:00:15;;;;;;;49.03;22.98;;;3.80;99.90;;;-144.05;86.85;57033.63;5017723;28;20064;-79
2024/02/12 07:02:43;;;;;;;48.90;23.08;;;7.10;99.90;;;-144.05;86.94;57048.50;5010121;28;20065;-78
2024/02/12 07:05:12;;;;;;;42.85;21.75;;;7.30;99.90;;;-144.05;86.67;57035.75;5016949;28;20514;-80
2024/02/12 07:07:39;;;;;;;45.72;22.67;;;7.60;99.90;;;-144.05;86.24;57061.22;5016502;28;20669;-78
2024/02/12 07:10:12;;;;;;;45.63;22.33;;;3.80;99.90;;;-144.05;86.29;57031.50;5032112;28;20034;-79
2024/02/12 07:12:38;;;;;;;47.65;21.10;;;7.70;99.90;;;-144.05;85.87;57029.38;5016735;28;20041;-79
2024/02/12 07:15:09;;;;;;;46.67;21.52;;;7.00;99.90;;;-144.05;85.66;57033.63;5014916;28;20491;-79
2024/02/12 07:17:36;;;;;;;48.47;22.00;;;6.80;99.90;;;-144.05;85.47;57020.88;5015389;28;20499;-76
2024/02/12 07:20:09;;;;;;;46.63;21.15;;;7.80;99.90;;;-144.05;85.46;57025.13;5014856;28;20034;-79
2024/02/12 07:22:38;;;;;;;46.13;21.67;;;6.70;99.90;;;-144.05;85.01;57027.25;5014523;28;20060;-79
2024/02/12 07:25:05;;;;;;;48.13;22.30;;;7.90;99.90;;;-144.05;84.96;56997.50;5017876;28;20128;-79
2024/02/12 07:27:31;;;;;;;44.13;21.50;;;7.10;99.90;;;-144.05;84.76;57035.75;5014852;28;20099;-78
2024/02/12 07:29:57;;;;;;;46.60;22.10;;;6.60;99.90;;;-144.05;84.69;57035.75;5015202;28;20034;-79
2024/02/12 07:32:24;;;;;;;45.67;22.98;;;;;;;-144.05;84.64;57029.38;5029589;28;20506;-79
2024/02/12 07:34:50;;;;;;;45.75;22.83;;;;;;;-144.05;84.85;57035.75;5015062;28;20034;-78
2024/02/12 07:37:17;;;;;;;45.70;22.88;;;7.60;99.90;;;-144.05;84.52;57040.00;5014416;28;20057;-79
2024/02/12 07:39:43;;;;;;;48.22;23.48;;;;;;;-144.05;84.40;57046.38;5014716;28;20033;-79
2024/02/12 07:42:10;;;;;;;48.35;24.23;;;6.80;99.90;;;-144.05;84.24;57018.75;5030382;28;20028;-78
2024/02/12 07:44:41;;;;;;;48.47;23.25;;;7.20;99.90;;;-144.05;84.54;57018.75;5013214;28;20022;-77
2024/02/12 07:47:07;;;;;;;47.03;22.75;;;;;;;-144.05;84.69;57012.38;5013519;28;20026;-80
2024/02/12 07:49:34;;;;;;;48.85;24.23;;;6.60;99.90;;;-144.05;84.14;57027.25;5013540;28;20260;-78
2024/02/12 07:52:00;;;;;;;51.15;23.73;;;6.90;99.90;;;-144.05;83.87;57020.88;5013627;28;20022;-77
2024/02/12 07:54:28;;;;;;;57.35;24.08;;;8.10;99.90;;;-144.05;83.39;57027.25;5012964;28;20030;-77
2024/02/12 07:56:55;;;;;;;43.40;21.83;;;8.20;99.90;;;-144.05;82.99;57035.75;5011775;28;20038;-76
2024/02/12 07:59:24;;;;;;;54.17;25.67;;;7.40;99.90;;;-144.05;83.27;57018.75;5013302;28;20107;-79
2024/02/12 08:01:51;;;;;;;49.70;25.80;;;7.50;99.90;;;-144.05;83.34;57008.13;5013102;28;20030;-77
2024/02/12 08:04:19;;;;;;;53.47;25.30;;;8.50;99.90;;;-144.05;83.42;57008.13;5012880;28;20400;-77
2024/02/12 08:06:45;;;;;;;48.03;24.95;;;;;;;-144.05;83.14;57029.38;5012769;28;20034;-78
2024/02/12 08:09:11;;;;;;;45.30;25.02;;;6.70;99.90;;;-144.05;83.85;57033.63;5012673;28;20041;-79
2024/02/12 08:11:40;;;;;;;57.13;26.75;;;6.80;99.90;;;-144.05;83.82;56991.13;5012980;28;20026;-80
2024/02/12 08:14:09;;;;;;;53.15;26.90;;;7.20;99.90;;;-144.05;83.76;57016.63;5012647;28;20030;-79
2024/02/12 08:16:35;;;;;;;52.33;26.38;;;7.30;99.90;;;-144.05;83.58;57042.13;5012256;28;20022;-79
2024/02/12 08:19:01;;;;;;;52.20;27.55;;;7.80;99.90;;;-144.05;83.77;57006.00;5013669;28;20125;-78
2024/02/12 08:21:27;;;;;;;52.05;27.30;;;6.70;99.90;;;-144.05;83.11;57014.50;5013007;28;20025;-78
2024/02/12 08:23:53;;;;;;;55.00;26.80;;;8.10;99.90;;;-144.05;83.06;57023.00;5014240;28;20109;-77
2024/02/12 08:26:21;;;;;;;52.08;26.27;;;8.80;99.90;;;-144.05;82.57;57020.88;5016137;28;20038;-78
2024/02/12 08:28:47;;;;;;;53.90;27.02;;;8.70;99.90;;;-144.05;82.71;57008.13;5012894;28;20113;-76
2024/02/12 08:31:19;;;;;;;51.67;26.38;;;8.00;99.90;;;-144.05;82.57;57016.63;5012708;28;20037;-78
2024/02/12 08:33:47;;;;;;;49.95;26.95;;;7.00;99.90;;;-144.05;82.45;57018.75;5006739;28;20045;-79
2024/02/12 08:36:16;;;;;;;48.78;25.58;;;8.20;99.90;;;-144.05;82.43;56995.38;5014220;28;20079;-80
2024/02/12 08:38:43;;;;;;;49.40;25.58;;;;;;;-144.05;82.75;57008.13;5009448;28;20026;-77
2024/02/12 08:41:09;;;;;;;47.35;25.92;;;8.60;99.90;;;-144.05;82.36;57025.13;5013942;28;20037;-77
2024/02/12 08:43:35;;;;;;;48.60;25.23;;;;;;;-144.05;82.20;57006.00;5014772;28;20033;-78
2024/02/12 08:46:01;;;;;;;52.97;26.00;;;8.80;99.90;;;-144.05;81.83;57008.13;5012843;28;20553;-78
2024/02/12 08:48:27;;;;;;;54.90;27.58;;;8.90;99.90;;;-144.05;80.99;57012.38;5017470;28;20041;-81
2024/02/12 08:50:53;;;;;;;51.38;26.15;;;8.50;99.90;;;-144.05;80.44;57046.38;5019516;28;20029;-80
2024/02/12 08:53:19;;;;;;;40.15;23.08;;;8.70;99.90;;;-144.05;80.55;57042.13;5015902;28;20088;-81
2024/02/12 08:55:45;;;;;;;49.97;24.58;;;8.70;99.90;;;-144.05;80.90;57014.50;5031253;28;20492;-80
2024/02/12 08:58:12;;;;;;;47.88;24.67;;;;;;;-144.05;79.94;56989.00;5016735;28;20432;-78
2024/02/12 09:00:38;;;;;;;43.25;24.02;;;7.20;99.90;;;-144.05;79.72;57001.75;5015704;28;20109;-79
2024/02/12 09:03:04;;;;;;;52.35;26.35;;;7.00;99.90;;;-144.05;79.06;57027.25;5015418;28;20479;-77
2024/02/12 09:05:31;;;;;;;46.28;24.83;;;;;;;-144.05;79.22;57008.13;5013108;28;20034;-78
2024/02/12 09:07:57;;;;;;;45.88;24.50;;;;;;;-144.05;79.32;57016.63;5013047;28;20060;-78
2024/02/12 09:10:24;;;;;;;44.03;23.23;;;;;;;-144.05;79.59;56997.50;5012176;28;20115;-79
2024/02/12 09:12:51;;;;;;;45.75;22.42;;;;;;;-144.05;79.13;56997.50;5028408;28;20030;-80
2024/02/12 09:15:17;;;;;;;47.53;24.80;;;9.20;99.90;;;-144.05;78.60;57008.13;5015599;28;20079;-83
2024/02/12 09:17:47;;;;;;;43.55;23.23;;;;;;;-144.05;79.08;56989.00;5016501;28;20037;-83
2024/02/12 09:20:14;;;;;;;42.35;21.38;;;8.00;99.90;;;-144.05;79.31;57010.25;5022574;28;20109;-80
2024/02/12 09:22:40;;;;;;;44.85;22.38;;;;;;;-144.05;79.90;56999.63;5012168;28;20084;-79
2024/02/12 09:25:13;;;;;;;42.80;23.55;;;4.40;99.90;;;-144.05;79.76;57023.00;5036890;28;20495;-80
2024/02/12 09:27:46;;;;;;;44.00;22.38;;;8.50;99.90;;;-144.05;80.05;57020.88;5031654;28;20033;-79
2024/02/12 09:30:15;;;;;;;45.03;22.77;;;;;;;-144.05;79.65;57016.63;5016211;28;20064;-78
2024/02/12 09:32:44;;;;;;;42.38;21.92;;;7.10;99.90;;;-144.05;79.89;57001.75;5004172;28;20061;-80
2024/02/12 09:35:12;;;;;;;46.53;22.08;;;6.40;99.90;;;-144.05;79.84;57025.13;5012101;28;20375;-81
2024/02/12 09:37:39;;;;;;;43.10;21.42;;;8.90;99.90;;;-144.05;79.67;57012.38;5031152;28;20022;-80
2024/02/12 09:40:07;;;;;;;44.50;24.08;;;8.40;99.90;;;-144.05;79.58;57014.50;5016132;28;20033;-80
2024/02/12 09:42:33;;;;;;;39.85;20.98;;;8.00;99.90;;;-144.05;80.05;56989.00;5016122;28;20033;-81
2024/02/12 09:45:07;;;;;;;42.88;21.35;;;6.90;99.90;;;-144.05;79.97;57018.75;5016735;28;20053;-82
2024/02/12 09:47:35;;;;;;;48.40;23.98;;;7.30;99.90;;;-144.05;80.06;57006.00;5034401;28;20037;-80
2024/02/12 09:50:04;;;;;;;44.47;23.05;;;6.80;99.90;;;-144.05;79.78;57014.50;5017898;28;20224;-81
2024/02/12 09:52:31;;;;;;;42.63;22.23;;;;;;;-144.05;79.33;57001.75;5019447;28;20166;-79
2024/02/12 09:54:57;;;;;;;46.30;22.45;;;9.10;99.90;;;-144.05;79.60;57012.38;5019608;28;20037;-80
2024/02/12 09:57:23;;;;;;;44.67;23.40;;;8.90;99.90;;;-144.05;79.50;57014.50;5034104;28;20030;-83
2024/02/12 09:59:55;;;;;;;43.13;21.60;;;;;;;-144.05;79.70;57020.88;5021450;28;20034;-82
2024/02/12 10:02:24;;;;;;;39.25;22.55;;;;;;;-144.05;79.04;56995.38;5016762;28;20470;-79
2024/02/12 10:04:51;;;;;;;43.80;22.15;;;;;;;-144.05;79.16;57010.25;5018315;28;20045;-79
2024/02/12 10:07:17;;;;;;;44.85;23.25;;;10.80;99.90;;;-144.05;78.81;57025.13;5017409;28;20129;-80
2024/02/12 10:09:43;;;;;;;43.05;22.40;;;;;;;-144.05;79.35;57008.13;5019098;28;20483;-82
2024/02/12 10:12:09;;;;;;;39.92;21.20;;;10.10;99.90;;;-144.05;79.66;57003.88;5021052;28;20096;-82
2024/02/12 10:14:35;;;;;;;39.72;20.90;;;8.80;99.90;;;-144.05;79.53;57027.25;5018497;28;20030;-80
2024/02/12 10:17:02;;;;;;;36.85;21.27;;;7.00;99.90;;;-144.05;79.35;57008.13;5015926;28;20032;-81
2024/02/12 10:19:28;;;;;;;36.60;21.25;;;;;;;-144.05;79.51;57006.00;5017442;28;20083;-80
2024/02/12 10:21:55;;;;;;;46.70;21.90;;;;;;;-144.05;80.57;57012.38;5016957;28;20473;-82
2024/02/12 10:24:21;;;;;;;47.45;22.50;;;8.70;99.90;;;-144.05;81.14;57018.75;5022473;28;20036;-79
2024/02/12 10:26:50;;;;;;;37.65;21.85;;;6.60;99.90;;;-144.05;82.27;57025.13;5020509;28;20037;-82
2024/02/12 10:29:20;;;;;;;35.50;18.63;;;8.30;99.90;;;-144.05;82.47;57018.75;5025814;28;20044;-80
2024/02/12 10:31:46;;;;;;;38.78;21.65;;;;;;;-144.05;82.06;57003.88;5026981;28;20034;-81
2024/02/12 10:34:17;;;;;;;25.38;14.40;;;6.80;99.90;;;-144.05;82.13;57023.00;5029753;28;20022;-81
2024/02/12 10:36:47;;;;;;;19.52;11.15;;;6.90;99.90;;;-144.05;81.33;57033.63;5029498;28;20048;-79
2024/02/12 10:39:18;;;;;;;19.83;10.82;;;8.00;99.90;;;-144.05;80.75;57001.75;5023823;28;20025;-80